sensor_id;sensor_type;location;lat;lon;timestamp;P1;durP1;ratioP1;P2;durP2;ratioP2
56122;SDS011;42426;46.104;19.656;2023-05-07T00:02:13;9.02;;;6.05;;
56122;SDS011;42426;46.104;19.656;2023-05-07T00:04:39;22.48;;;9.77;;
56122;SDS011;42426;46.104;19.656;2023-05-07T00:07:20;9.82;;;6.28;;
56122;SDS011;42426;46.104;19.656;2023-05-07T00:09:46;10.07;;;6.70;;
56122;SDS011;42426;46.104;19.656;2023-05-07T00:12:12;8.55;;;6.18;;
56122;SDS011;42426;46.104;19.656;2023-05-07T00:14:39;9.23;;;6.45;;
56122;SDS011;42426;46.104;19.656;2023-05-07T00:17:05;10.57;;;6.80;;
56122;SDS011;42426;46.104;19.656;2023-05-07T00:19:31;7.72;;;6.45;;
56122;SDS011;42426;46.104;19.656;2023-05-07T00:21:57;9.95;;;6.88;;
56122;SDS011;42426;46.104;19.656;2023-05-07T00:24:23;8.57;;;6.28;;
56122;SDS011;42426;46.104;19.656;2023-05-07T00:26:49;9.07;;;6.00;;
56122;SDS011;42426;46.104;19.656;2023-05-07T00:29:15;10.82;;;6.40;;
56122;SDS011;42426;46.104;19.656;2023-05-07T00:31:41;8.00;;;5.85;;
56122;SDS011;42426;46.104;19.656;2023-05-07T00:34:06;8.88;;;6.38;;
56122;SDS011;42426;46.104;19.656;2023-05-07T00:36:32;12.82;;;7.20;;
56122;SDS011;42426;46.104;19.656;2023-05-07T00:39:01;8.70;;;6.80;;
56122;SDS011;42426;46.104;19.656;2023-05-07T00:41:29;6.82;;;6.10;;
56122;SDS011;42426;46.104;19.656;2023-05-07T00:43:56;8.18;;;6.28;;
56122;SDS011;42426;46.104;19.656;2023-05-07T00:46:22;6.93;;;6.13;;
56122;SDS011;42426;46.104;19.656;2023-05-07T00:48:49;8.77;;;6.63;;
56122;SDS011;42426;46.104;19.656;2023-05-07T00:51:16;8.90;;;6.22;;
56122;SDS011;42426;46.104;19.656;2023-05-07T00:53:43;11.07;;;7.10;;
56122;SDS011;42426;46.104;19.656;2023-05-07T00:56:09;8.45;;;6.22;;
56122;SDS011;42426;46.104;19.656;2023-05-07T00:58:36;9.40;;;6.60;;
56122;SDS011;42426;46.104;19.656;2023-05-07T01:01:02;11.70;;;6.70;;
56122;SDS011;42426;46.104;19.656;2023-05-07T01:03:28;8.88;;;7.25;;
56122;SDS011;42426;46.104;19.656;2023-05-07T01:05:54;9.45;;;6.72;;
56122;SDS011;42426;46.104;19.656;2023-05-07T01:08:20;10.38;;;7.00;;
56122;SDS011;42426;46.104;19.656;2023-05-07T01:10:49;8.40;;;7.00;;
56122;SDS011;42426;46.104;19.656;2023-05-07T01:13:17;9.00;;;6.18;;
56122;SDS011;42426;46.104;19.656;2023-05-07T01:15:44;8.18;;;6.68;;
56122;SDS011;42426;46.104;19.656;2023-05-07T01:18:10;8.05;;;6.60;;
56122;SDS011;42426;46.104;19.656;2023-05-07T01:20:36;7.80;;;6.53;;
56122;SDS011;42426;46.104;19.656;2023-05-07T01:23:02;9.98;;;6.80;;
56122;SDS011;42426;46.104;19.656;2023-05-07T01:25:28;8.57;;;6.47;;
56122;SDS011;42426;46.104;19.656;2023-05-07T01:27:55;8.40;;;6.85;;
56122;SDS011;42426;46.104;19.656;2023-05-07T01:30:21;7.85;;;6.28;;
56122;SDS011;42426;46.104;19.656;2023-05-07T01:32:49;8.70;;;6.35;;
56122;SDS011;42426;46.104;19.656;2023-05-07T01:35:19;7.60;;;6.80;;
56122;SDS011;42426;46.104;19.656;2023-05-07T01:37:55;7.47;;;6.68;;
56122;SDS011;42426;46.104;19.656;2023-05-07T01:40:21;8.48;;;6.15;;
56122;SDS011;42426;46.104;19.656;2023-05-07T01:42:47;7.20;;;5.97;;
56122;SDS011;42426;46.104;19.656;2023-05-07T01:45:13;7.40;;;6.32;;
56122;SDS011;42426;46.104;19.656;2023-05-07T01:47:39;7.30;;;6.30;;
56122;SDS011;42426;46.104;19.656;2023-05-07T01:50:06;8.73;;;6.90;;
56122;SDS011;42426;46.104;19.656;2023-05-07T01:52:38;6.93;;;6.22;;
56122;SDS011;42426;46.104;19.656;2023-05-07T01:55:05;9.48;;;7.05;;
56122;SDS011;42426;46.104;19.656;2023-05-07T01:57:31;8.35;;;6.60;;
56122;SDS011;42426;46.104;19.656;2023-05-07T01:59:57;6.68;;;5.68;;
56122;SDS011;42426;46.104;19.656;2023-05-07T02:02:23;9.70;;;6.25;;
56122;SDS011;42426;46.104;19.656;2023-05-07T02:04:50;9.98;;;6.50;;
56122;SDS011;42426;46.104;19.656;2023-05-07T02:07:16;10.57;;;7.82;;
56122;SDS011;42426;46.104;19.656;2023-05-07T02:09:42;14.63;;;6.45;;
56122;SDS011;42426;46.104;19.656;2023-05-07T02:12:08;8.35;;;6.32;;
56122;SDS011;42426;46.104;19.656;2023-05-07T02:14:34;8.52;;;6.70;;
56122;SDS011;42426;46.104;19.656;2023-05-07T02:16:59;11.95;;;6.32;;
56122;SDS011;42426;46.104;19.656;2023-05-07T02:19:25;10.27;;;6.90;;
56122;SDS011;42426;46.104;19.656;2023-05-07T02:21:51;8.25;;;6.03;;
56122;SDS011;42426;46.104;19.656;2023-05-07T02:24:18;6.93;;;6.13;;
56122;SDS011;42426;46.104;19.656;2023-05-07T02:26:43;7.10;;;6.30;;
56122;SDS011;42426;46.104;19.656;2023-05-07T02:29:09;9.70;;;6.57;;
56122;SDS011;42426;46.104;19.656;2023-05-07T02:31:35;7.70;;;6.90;;
56122;SDS011;42426;46.104;19.656;2023-05-07T02:34:00;10.00;;;6.95;;
56122;SDS011;42426;46.104;19.656;2023-05-07T02:36:26;8.25;;;6.97;;
56122;SDS011;42426;46.104;19.656;2023-05-07T02:38:52;9.57;;;6.20;;
56122;SDS011;42426;46.104;19.656;2023-05-07T02:41:18;7.97;;;6.55;;
56122;SDS011;42426;46.104;19.656;2023-05-07T02:43:45;8.85;;;6.47;;
56122;SDS011;42426;46.104;19.656;2023-05-07T02:46:11;12.32;;;7.18;;
56122;SDS011;42426;46.104;19.656;2023-05-07T02:48:36;9.68;;;7.82;;
56122;SDS011;42426;46.104;19.656;2023-05-07T02:51:02;9.60;;;7.15;;
56122;SDS011;42426;46.104;19.656;2023-05-07T02:53:29;8.45;;;7.10;;
56122;SDS011;42426;46.104;19.656;2023-05-07T02:55:55;10.23;;;8.20;;
56122;SDS011;42426;46.104;19.656;2023-05-07T02:58:21;11.85;;;6.97;;
56122;SDS011;42426;46.104;19.656;2023-05-07T03:00:47;9.80;;;7.53;;
56122;SDS011;42426;46.104;19.656;2023-05-07T03:03:14;8.80;;;7.32;;
56122;SDS011;42426;46.104;19.656;2023-05-07T03:05:40;11.05;;;7.57;;
56122;SDS011;42426;46.104;19.656;2023-05-07T03:08:07;9.27;;;6.93;;
56122;SDS011;42426;46.104;19.656;2023-05-07T03:10:33;10.50;;;7.65;;
56122;SDS011;42426;46.104;19.656;2023-05-07T03:12:59;8.73;;;7.13;;
56122;SDS011;42426;46.104;19.656;2023-05-07T03:15:25;10.18;;;7.45;;
56122;SDS011;42426;46.104;19.656;2023-05-07T03:17:52;9.23;;;7.65;;
56122;SDS011;42426;46.104;19.656;2023-05-07T03:20:18;10.02;;;8.05;;
56122;SDS011;42426;46.104;19.656;2023-05-07T03:22:45;12.50;;;7.88;;
56122;SDS011;42426;46.104;19.656;2023-05-07T03:25:12;8.57;;;7.22;;
56122;SDS011;42426;46.104;19.656;2023-05-07T03:27:39;10.25;;;7.40;;
56122;SDS011;42426;46.104;19.656;2023-05-07T03:30:07;9.60;;;6.90;;
56122;SDS011;42426;46.104;19.656;2023-05-07T03:32:33;12.23;;;7.07;;
56122;SDS011;42426;46.104;19.656;2023-05-07T03:35:00;8.43;;;7.53;;
56122;SDS011;42426;46.104;19.656;2023-05-07T03:37:27;11.43;;;7.68;;
56122;SDS011;42426;46.104;19.656;2023-05-07T03:39:53;12.23;;;8.05;;
56122;SDS011;42426;46.104;19.656;2023-05-07T03:42:19;12.15;;;7.45;;
56122;SDS011;42426;46.104;19.656;2023-05-07T03:44:47;8.90;;;7.00;;
56122;SDS011;42426;46.104;19.656;2023-05-07T03:47:13;8.43;;;7.10;;
56122;SDS011;42426;46.104;19.656;2023-05-07T03:49:40;11.68;;;8.05;;
56122;SDS011;42426;46.104;19.656;2023-05-07T03:52:06;9.18;;;7.78;;
56122;SDS011;42426;46.104;19.656;2023-05-07T03:54:32;9.77;;;7.72;;
56122;SDS011;42426;46.104;19.656;2023-05-07T03:56:58;10.40;;;7.55;;
56122;SDS011;42426;46.104;19.656;2023-05-07T03:59:24;8.20;;;6.95;;
56122;SDS011;42426;46.104;19.656;2023-05-07T04:01:50;10.48;;;8.10;;
56122;SDS011;42426;46.104;19.656;2023-05-07T04:04:17;10.63;;;7.78;;
56122;SDS011;42426;46.104;19.656;2023-05-07T04:06:43;11.15;;;7.88;;
56122;SDS011;42426;46.104;19.656;2023-05-07T04:09:08;9.65;;;7.47;;
56122;SDS011;42426;46.104;19.656;2023-05-07T04:11:35;8.60;;;7.22;;
56122;SDS011;42426;46.104;19.656;2023-05-07T04:14:01;11.43;;;8.43;;
56122;SDS011;42426;46.104;19.656;2023-05-07T04:16:26;10.40;;;7.90;;
56122;SDS011;42426;46.104;19.656;2023-05-07T04:18:52;12.90;;;7.85;;
56122;SDS011;42426;46.104;19.656;2023-05-07T04:21:18;8.88;;;7.50;;
56122;SDS011;42426;46.104;19.656;2023-05-07T04:23:48;10.18;;;8.07;;
56122;SDS011;42426;46.104;19.656;2023-05-07T04:26:14;11.50;;;7.78;;
56122;SDS011;42426;46.104;19.656;2023-05-07T04:28:41;8.43;;;7.10;;
56122;SDS011;42426;46.104;19.656;2023-05-07T04:31:07;9.63;;;7.68;;
56122;SDS011;42426;46.104;19.656;2023-05-07T04:33:33;9.60;;;8.05;;
56122;SDS011;42426;46.104;19.656;2023-05-07T04:36:03;8.85;;;7.00;;
56122;SDS011;42426;46.104;19.656;2023-05-07T04:38:30;9.73;;;7.80;;
56122;SDS011;42426;46.104;19.656;2023-05-07T04:40:56;8.98;;;7.40;;
56122;SDS011;42426;46.104;19.656;2023-05-07T04:43:23;10.55;;;8.23;;
56122;SDS011;42426;46.104;19.656;2023-05-07T04:45:50;9.45;;;7.60;;
56122;SDS011;42426;46.104;19.656;2023-05-07T04:48:17;10.77;;;7.30;;
56122;SDS011;42426;46.104;19.656;2023-05-07T04:50:44;9.43;;;7.32;;
56122;SDS011;42426;46.104;19.656;2023-05-07T04:53:12;12.43;;;7.07;;
56122;SDS011;42426;46.104;19.656;2023-05-07T04:55:38;8.48;;;7.57;;
56122;SDS011;42426;46.104;19.656;2023-05-07T04:58:03;8.52;;;7.28;;
56122;SDS011;42426;46.104;19.656;2023-05-07T05:00:30;10.00;;;7.75;;
56122;SDS011;42426;46.104;19.656;2023-05-07T05:02:56;15.82;;;7.55;;
56122;SDS011;42426;46.104;19.656;2023-05-07T05:05:21;9.82;;;8.13;;
56122;SDS011;42426;46.104;19.656;2023-05-07T05:07:47;13.00;;;8.15;;
56122;SDS011;42426;46.104;19.656;2023-05-07T05:10:13;12.63;;;8.60;;
56122;SDS011;42426;46.104;19.656;2023-05-07T05:12:39;13.05;;;9.90;;
56122;SDS011;42426;46.104;19.656;2023-05-07T05:15:05;10.65;;;8.25;;
56122;SDS011;42426;46.104;19.656;2023-05-07T05:17:31;10.82;;;7.85;;
56122;SDS011;42426;46.104;19.656;2023-05-07T05:19:59;9.32;;;7.80;;
56122;SDS011;42426;46.104;19.656;2023-05-07T05:22:25;10.02;;;7.47;;
56122;SDS011;42426;46.104;19.656;2023-05-07T05:24:51;10.10;;;6.85;;
56122;SDS011;42426;46.104;19.656;2023-05-07T05:27:17;9.90;;;7.88;;
56122;SDS011;42426;46.104;19.656;2023-05-07T05:29:43;10.15;;;7.80;;
56122;SDS011;42426;46.104;19.656;2023-05-07T05:32:08;9.15;;;8.18;;
56122;SDS011;42426;46.104;19.656;2023-05-07T05:34:35;16.80;;;7.65;;
56122;SDS011;42426;46.104;19.656;2023-05-07T05:37:00;10.55;;;7.68;;
56122;SDS011;42426;46.104;19.656;2023-05-07T05:39:26;10.10;;;6.72;;
56122;SDS011;42426;46.104;19.656;2023-05-07T05:41:52;10.85;;;7.50;;
56122;SDS011;42426;46.104;19.656;2023-05-07T05:44:18;9.55;;;7.05;;
56122;SDS011;42426;46.104;19.656;2023-05-07T05:46:45;9.43;;;7.32;;
56122;SDS011;42426;46.104;19.656;2023-05-07T05:49:11;8.50;;;7.53;;
56122;SDS011;42426;46.104;19.656;2023-05-07T05:51:39;10.18;;;7.88;;
56122;SDS011;42426;46.104;19.656;2023-05-07T05:54:05;12.35;;;9.00;;
56122;SDS011;42426;46.104;19.656;2023-05-07T05:56:31;10.43;;;8.25;;
56122;SDS011;42426;46.104;19.656;2023-05-07T05:58:57;10.07;;;7.68;;
56122;SDS011;42426;46.104;19.656;2023-05-07T06:01:23;10.52;;;7.60;;
56122;SDS011;42426;46.104;19.656;2023-05-07T06:03:49;12.35;;;7.30;;
56122;SDS011;42426;46.104;19.656;2023-05-07T06:06:16;12.38;;;8.45;;
56122;SDS011;42426;46.104;19.656;2023-05-07T06:08:42;10.60;;;7.72;;
56122;SDS011;42426;46.104;19.656;2023-05-07T06:11:07;8.35;;;6.85;;
56122;SDS011;42426;46.104;19.656;2023-05-07T06:13:33;9.70;;;8.70;;
56122;SDS011;42426;46.104;19.656;2023-05-07T06:15:59;11.77;;;9.27;;
56122;SDS011;42426;46.104;19.656;2023-05-07T06:18:25;10.75;;;7.65;;
56122;SDS011;42426;46.104;19.656;2023-05-07T06:20:51;8.77;;;7.32;;
56122;SDS011;42426;46.104;19.656;2023-05-07T06:23:18;8.13;;;7.00;;
56122;SDS011;42426;46.104;19.656;2023-05-07T06:25:48;10.23;;;7.63;;
56122;SDS011;42426;46.104;19.656;2023-05-07T06:28:16;8.50;;;7.10;;
56122;SDS011;42426;46.104;19.656;2023-05-07T06:30:42;13.07;;;7.85;;
56122;SDS011;42426;46.104;19.656;2023-05-07T06:33:10;10.70;;;7.22;;
56122;SDS011;42426;46.104;19.656;2023-05-07T06:35:36;9.88;;;7.53;;
56122;SDS011;42426;46.104;19.656;2023-05-07T06:38:01;8.60;;;6.82;;
56122;SDS011;42426;46.104;19.656;2023-05-07T06:40:27;9.18;;;7.28;;
56122;SDS011;42426;46.104;19.656;2023-05-07T06:42:54;8.48;;;7.22;;
56122;SDS011;42426;46.104;19.656;2023-05-07T06:45:20;11.15;;;7.35;;
56122;SDS011;42426;46.104;19.656;2023-05-07T06:47:45;9.73;;;6.57;;
56122;SDS011;42426;46.104;19.656;2023-05-07T06:50:11;8.98;;;7.95;;
56122;SDS011;42426;46.104;19.656;2023-05-07T06:52:37;10.43;;;7.32;;
56122;SDS011;42426;46.104;19.656;2023-05-07T06:55:03;8.00;;;7.05;;
56122;SDS011;42426;46.104;19.656;2023-05-07T06:57:30;9.10;;;6.78;;
56122;SDS011;42426;46.104;19.656;2023-05-07T06:59:56;11.10;;;7.45;;
56122;SDS011;42426;46.104;19.656;2023-05-07T07:02:22;10.45;;;6.38;;
56122;SDS011;42426;46.104;19.656;2023-05-07T07:04:48;7.90;;;6.63;;
56122;SDS011;42426;46.104;19.656;2023-05-07T07:07:14;9.70;;;6.90;;
56122;SDS011;42426;46.104;19.656;2023-05-07T07:09:40;7.57;;;6.43;;
56122;SDS011;42426;46.104;19.656;2023-05-07T07:12:06;8.55;;;6.80;;
56122;SDS011;42426;46.104;19.656;2023-05-07T07:14:31;8.32;;;6.10;;
56122;SDS011;42426;46.104;19.656;2023-05-07T07:16:57;10.10;;;6.03;;
56122;SDS011;42426;46.104;19.656;2023-05-07T07:19:23;7.97;;;5.35;;
56122;SDS011;42426;46.104;19.656;2023-05-07T07:21:49;8.73;;;5.38;;
56122;SDS011;42426;46.104;19.656;2023-05-07T07:24:15;6.70;;;5.18;;
56122;SDS011;42426;46.104;19.656;2023-05-07T07:26:44;15.80;;;5.88;;
56122;SDS011;42426;46.104;19.656;2023-05-07T07:29:10;10.02;;;5.53;;
56122;SDS011;42426;46.104;19.656;2023-05-07T07:31:36;11.07;;;5.72;;
56122;SDS011;42426;46.104;19.656;2023-05-07T07:34:02;7.68;;;5.60;;
56122;SDS011;42426;46.104;19.656;2023-05-07T07:36:27;7.05;;;5.22;;
56122;SDS011;42426;46.104;19.656;2023-05-07T07:38:54;7.78;;;5.43;;
56122;SDS011;42426;46.104;19.656;2023-05-07T07:41:20;6.93;;;5.63;;
56122;SDS011;42426;46.104;19.656;2023-05-07T07:43:48;9.30;;;6.57;;
56122;SDS011;42426;46.104;19.656;2023-05-07T07:46:14;8.75;;;5.85;;
56122;SDS011;42426;46.104;19.656;2023-05-07T07:48:40;7.53;;;5.50;;
56122;SDS011;42426;46.104;19.656;2023-05-07T07:51:06;6.97;;;5.93;;
56122;SDS011;42426;46.104;19.656;2023-05-07T07:53:33;8.30;;;5.88;;
56122;SDS011;42426;46.104;19.656;2023-05-07T07:55:59;14.15;;;10.65;;
56122;SDS011;42426;46.104;19.656;2023-05-07T07:58:25;11.25;;;9.20;;
56122;SDS011;42426;46.104;19.656;2023-05-07T08:00:51;11.05;;;8.40;;
56122;SDS011;42426;46.104;19.656;2023-05-07T08:03:16;11.88;;;6.93;;
56122;SDS011;42426;46.104;19.656;2023-05-07T08:05:42;7.93;;;5.95;;
56122;SDS011;42426;46.104;19.656;2023-05-07T08:08:08;6.78;;;5.43;;
56122;SDS011;42426;46.104;19.656;2023-05-07T08:10:34;8.00;;;5.95;;
56122;SDS011;42426;46.104;19.656;2023-05-07T08:13:03;11.07;;;6.78;;
56122;SDS011;42426;46.104;19.656;2023-05-07T08:15:29;12.07;;;8.50;;
56122;SDS011;42426;46.104;19.656;2023-05-07T08:17:55;7.28;;;6.57;;
56122;SDS011;42426;46.104;19.656;2023-05-07T08:20:22;7.85;;;5.40;;
56122;SDS011;42426;46.104;19.656;2023-05-07T08:22:48;19.40;;;12.45;;
56122;SDS011;42426;46.104;19.656;2023-05-07T08:25:14;38.45;;;27.15;;
56122;SDS011;42426;46.104;19.656;2023-05-07T08:27:40;27.40;;;17.42;;
56122;SDS011;42426;46.104;19.656;2023-05-07T08:30:06;45.08;;;29.15;;
56122;SDS011;42426;46.104;19.656;2023-05-07T08:32:33;25.58;;;18.25;;
56122;SDS011;42426;46.104;19.656;2023-05-07T08:34:59;30.67;;;12.98;;
56122;SDS011;42426;46.104;19.656;2023-05-07T08:37:25;35.55;;;12.77;;
56122;SDS011;42426;46.104;19.656;2023-05-07T08:39:50;15.20;;;9.27;;
56122;SDS011;42426;46.104;19.656;2023-05-07T08:42:16;7.55;;;6.75;;
56122;SDS011;42426;46.104;19.656;2023-05-07T08:44:44;12.43;;;7.70;;
56122;SDS011;42426;46.104;19.656;2023-05-07T08:47:13;8.38;;;6.78;;
56122;SDS011;42426;46.104;19.656;2023-05-07T08:49:39;7.40;;;6.53;;
56122;SDS011;42426;46.104;19.656;2023-05-07T08:52:05;16.38;;;9.85;;
56122;SDS011;42426;46.104;19.656;2023-05-07T08:54:31;7.88;;;5.70;;
56122;SDS011;42426;46.104;19.656;2023-05-07T08:56:58;5.07;;;4.57;;
56122;SDS011;42426;46.104;19.656;2023-05-07T08:59:24;6.57;;;5.45;;
56122;SDS011;42426;46.104;19.656;2023-05-07T09:01:52;6.63;;;5.97;;
56122;SDS011;42426;46.104;19.656;2023-05-07T09:04:17;8.65;;;6.32;;
56122;SDS011;42426;46.104;19.656;2023-05-07T09:06:43;7.32;;;6.40;;
56122;SDS011;42426;46.104;19.656;2023-05-07T09:09:09;7.88;;;6.05;;
56122;SDS011;42426;46.104;19.656;2023-05-07T09:11:39;8.57;;;5.53;;
56122;SDS011;42426;46.104;19.656;2023-05-07T09:14:04;8.80;;;5.82;;
56122;SDS011;42426;46.104;19.656;2023-05-07T09:16:30;11.45;;;7.25;;
56122;SDS011;42426;46.104;19.656;2023-05-07T09:18:56;6.38;;;5.72;;
56122;SDS011;42426;46.104;19.656;2023-05-07T09:21:23;7.70;;;5.60;;
56122;SDS011;42426;46.104;19.656;2023-05-07T09:23:53;10.43;;;6.00;;
56122;SDS011;42426;46.104;19.656;2023-05-07T09:26:24;6.88;;;6.18;;
56122;SDS011;42426;46.104;19.656;2023-05-07T09:28:51;7.18;;;6.47;;
56122;SDS011;42426;46.104;19.656;2023-05-07T09:31:17;6.60;;;6.00;;
56122;SDS011;42426;46.104;19.656;2023-05-07T09:33:45;6.68;;;5.90;;
56122;SDS011;42426;46.104;19.656;2023-05-07T09:36:11;5.97;;;5.38;;
56122;SDS011;42426;46.104;19.656;2023-05-07T09:38:39;5.82;;;5.20;;
56122;SDS011;42426;46.104;19.656;2023-05-07T09:41:08;9.43;;;5.35;;
56122;SDS011;42426;46.104;19.656;2023-05-07T09:43:35;6.80;;;5.40;;
56122;SDS011;42426;46.104;19.656;2023-05-07T09:46:06;6.18;;;4.95;;
56122;SDS011;42426;46.104;19.656;2023-05-07T09:48:38;5.68;;;5.15;;
56122;SDS011;42426;46.104;19.656;2023-05-07T09:53:56;6.97;;;6.30;;
56122;SDS011;42426;46.104;19.656;2023-05-07T09:56:25;7.63;;;5.55;;
56122;SDS011;42426;46.104;19.656;2023-05-07T09:58:52;8.55;;;6.10;;
56122;SDS011;42426;46.104;19.656;2023-05-07T10:01:19;7.28;;;6.05;;
56122;SDS011;42426;46.104;19.656;2023-05-07T10:03:47;7.30;;;5.38;;
56122;SDS011;42426;46.104;19.656;2023-05-07T10:06:15;7.18;;;5.15;;
56122;SDS011;42426;46.104;19.656;2023-05-07T10:08:42;6.45;;;5.68;;
56122;SDS011;42426;46.104;19.656;2023-05-07T10:11:08;7.25;;;5.93;;
56122;SDS011;42426;46.104;19.656;2023-05-07T10:13:35;7.70;;;6.28;;
56122;SDS011;42426;46.104;19.656;2023-05-07T10:16:05;9.68;;;7.40;;
56122;SDS011;42426;46.104;19.656;2023-05-07T10:18:31;7.03;;;5.97;;
56122;SDS011;42426;46.104;19.656;2023-05-07T10:21:07;7.93;;;5.68;;
56122;SDS011;42426;46.104;19.656;2023-05-07T10:23:33;6.03;;;5.00;;
56122;SDS011;42426;46.104;19.656;2023-05-07T10:26:02;8.02;;;5.93;;
56122;SDS011;42426;46.104;19.656;2023-05-07T10:28:30;9.07;;;6.55;;
56122;SDS011;42426;46.104;19.656;2023-05-07T10:31:08;6.68;;;5.75;;
56122;SDS011;42426;46.104;19.656;2023-05-07T10:36:21;13.43;;;7.28;;
56122;SDS011;42426;46.104;19.656;2023-05-07T10:38:48;8.95;;;6.03;;
56122;SDS011;42426;46.104;19.656;2023-05-07T10:41:15;10.00;;;6.57;;
56122;SDS011;42426;46.104;19.656;2023-05-07T10:43:43;6.00;;;5.15;;
56122;SDS011;42426;46.104;19.656;2023-05-07T10:51:28;7.65;;;6.60;;
56122;SDS011;42426;46.104;19.656;2023-05-07T10:56:40;8.60;;;6.90;;
56122;SDS011;42426;46.104;19.656;2023-05-07T11:01:49;8.07;;;6.47;;
56122;SDS011;42426;46.104;19.656;2023-05-07T11:04:16;6.45;;;5.85;;
56122;SDS011;42426;46.104;19.656;2023-05-07T11:12:17;6.85;;;5.75;;
56122;SDS011;42426;46.104;19.656;2023-05-07T11:15:10;6.63;;;5.95;;
56122;SDS011;42426;46.104;19.656;2023-05-07T11:17:53;7.38;;;6.05;;
56122;SDS011;42426;46.104;19.656;2023-05-07T11:20:44;7.60;;;6.38;;
56122;SDS011;42426;46.104;19.656;2023-05-07T11:26:07;10.40;;;6.63;;
56122;SDS011;42426;46.104;19.656;2023-05-07T11:31:04;8.77;;;5.60;;
56122;SDS011;42426;46.104;19.656;2023-05-07T11:33:33;9.63;;;6.43;;
56122;SDS011;42426;46.104;19.656;2023-05-07T11:36:00;7.22;;;6.53;;
56122;SDS011;42426;46.104;19.656;2023-05-07T11:38:28;7.72;;;5.97;;
56122;SDS011;42426;46.104;19.656;2023-05-07T11:40:56;6.68;;;5.80;;
56122;SDS011;42426;46.104;19.656;2023-05-07T11:43:24;9.38;;;6.18;;
56122;SDS011;42426;46.104;19.656;2023-05-07T11:45:49;6.32;;;5.72;;
56122;SDS011;42426;46.104;19.656;2023-05-07T11:48:16;7.72;;;7.03;;
56122;SDS011;42426;46.104;19.656;2023-05-07T11:50:52;9.52;;;6.80;;
56122;SDS011;42426;46.104;19.656;2023-05-07T11:53:28;7.57;;;6.90;;
56122;SDS011;42426;46.104;19.656;2023-05-07T11:56:11;7.47;;;6.15;;
56122;SDS011;42426;46.104;19.656;2023-05-07T11:58:39;6.47;;;5.88;;
56122;SDS011;42426;46.104;19.656;2023-05-07T12:01:09;9.23;;;6.25;;
56122;SDS011;42426;46.104;19.656;2023-05-07T12:03:36;9.68;;;6.20;;
56122;SDS011;42426;46.104;19.656;2023-05-07T12:06:08;6.85;;;6.15;;
56122;SDS011;42426;46.104;19.656;2023-05-07T12:08:36;7.25;;;6.55;;
56122;SDS011;42426;46.104;19.656;2023-05-07T12:11:03;6.95;;;6.15;;
56122;SDS011;42426;46.104;19.656;2023-05-07T12:13:31;9.90;;;6.97;;
56122;SDS011;42426;46.104;19.656;2023-05-07T12:15:58;7.68;;;6.63;;
56122;SDS011;42426;46.104;19.656;2023-05-07T12:18:24;7.38;;;6.20;;
56122;SDS011;42426;46.104;19.656;2023-05-07T12:20:50;19.35;;;7.30;;
56122;SDS011;42426;46.104;19.656;2023-05-07T12:23:17;11.80;;;6.82;;
56122;SDS011;42426;46.104;19.656;2023-05-07T12:25:43;9.63;;;6.28;;
56122;SDS011;42426;46.104;19.656;2023-05-07T12:28:12;14.55;;;8.18;;
56122;SDS011;42426;46.104;19.656;2023-05-07T12:30:40;9.88;;;6.03;;
56122;SDS011;42426;46.104;19.656;2023-05-07T12:33:07;8.77;;;6.95;;
56122;SDS011;42426;46.104;19.656;2023-05-07T12:35:40;8.10;;;6.72;;
56122;SDS011;42426;46.104;19.656;2023-05-07T12:38:13;9.05;;;6.55;;
56122;SDS011;42426;46.104;19.656;2023-05-07T12:40:44;11.95;;;7.18;;
56122;SDS011;42426;46.104;19.656;2023-05-07T12:43:21;8.13;;;7.15;;
56122;SDS011;42426;46.104;19.656;2023-05-07T12:45:53;6.75;;;6.15;;
56122;SDS011;42426;46.104;19.656;2023-05-07T12:48:20;9.15;;;7.55;;
56122;SDS011;42426;46.104;19.656;2023-05-07T12:50:53;12.20;;;8.50;;
56122;SDS011;42426;46.104;19.656;2023-05-07T12:53:20;11.15;;;7.63;;
56122;SDS011;42426;46.104;19.656;2023-05-07T12:55:49;11.80;;;8.40;;
56122;SDS011;42426;46.104;19.656;2023-05-07T12:58:17;9.35;;;8.18;;
56122;SDS011;42426;46.104;19.656;2023-05-07T13:00:43;12.10;;;8.57;;
56122;SDS011;42426;46.104;19.656;2023-05-07T13:03:10;15.65;;;9.25;;
56122;SDS011;42426;46.104;19.656;2023-05-07T13:05:36;14.60;;;9.25;;
56122;SDS011;42426;46.104;19.656;2023-05-07T13:08:02;10.65;;;8.68;;
56122;SDS011;42426;46.104;19.656;2023-05-07T13:10:27;16.90;;;10.35;;
56122;SDS011;42426;46.104;19.656;2023-05-07T13:12:53;16.08;;;9.50;;
56122;SDS011;42426;46.104;19.656;2023-05-07T13:15:20;16.95;;;9.65;;
56122;SDS011;42426;46.104;19.656;2023-05-07T13:17:46;12.52;;;9.52;;
56122;SDS011;42426;46.104;19.656;2023-05-07T13:20:13;10.48;;;9.23;;
56122;SDS011;42426;46.104;19.656;2023-05-07T13:22:40;11.07;;;9.30;;
56122;SDS011;42426;46.104;19.656;2023-05-07T13:25:06;14.40;;;9.55;;
56122;SDS011;42426;46.104;19.656;2023-05-07T13:27:33;12.80;;;10.07;;
56122;SDS011;42426;46.104;19.656;2023-05-07T13:30:05;10.93;;;9.25;;
56122;SDS011;42426;46.104;19.656;2023-05-07T13:32:33;11.88;;;9.30;;
56122;SDS011;42426;46.104;19.656;2023-05-07T13:34:59;10.30;;;8.90;;
56122;SDS011;42426;46.104;19.656;2023-05-07T13:37:25;15.68;;;9.35;;
56122;SDS011;42426;46.104;19.656;2023-05-07T13:39:51;11.45;;;10.25;;
56122;SDS011;42426;46.104;19.656;2023-05-07T13:42:16;11.38;;;10.13;;
56122;SDS011;42426;46.104;19.656;2023-05-07T13:44:42;9.90;;;8.85;;
56122;SDS011;42426;46.104;19.656;2023-05-07T13:47:08;12.77;;;9.80;;
56122;SDS011;42426;46.104;19.656;2023-05-07T13:49:34;14.95;;;10.63;;
56122;SDS011;42426;46.104;19.656;2023-05-07T13:52:04;13.98;;;11.00;;
56122;SDS011;42426;46.104;19.656;2023-05-07T13:54:30;12.68;;;10.73;;
56122;SDS011;42426;46.104;19.656;2023-05-07T13:56:56;15.30;;;11.68;;
56122;SDS011;42426;46.104;19.656;2023-05-07T13:59:21;12.40;;;11.10;;
56122;SDS011;42426;46.104;19.656;2023-05-07T14:01:48;17.13;;;13.55;;
56122;SDS011;42426;46.104;19.656;2023-05-07T14:04:14;15.65;;;13.00;;
56122;SDS011;42426;46.104;19.656;2023-05-07T14:06:40;20.48;;;13.15;;
56122;SDS011;42426;46.104;19.656;2023-05-07T14:09:06;17.85;;;14.35;;
56122;SDS011;42426;46.104;19.656;2023-05-07T14:11:32;17.25;;;14.45;;
56122;SDS011;42426;46.104;19.656;2023-05-07T14:13:57;26.70;;;15.23;;
56122;SDS011;42426;46.104;19.656;2023-05-07T14:16:26;16.30;;;13.73;;
56122;SDS011;42426;46.104;19.656;2023-05-07T14:18:52;14.75;;;13.07;;
56122;SDS011;42426;46.104;19.656;2023-05-07T14:21:18;13.68;;;12.13;;
56122;SDS011;42426;46.104;19.656;2023-05-07T14:23:44;12.45;;;11.15;;
56122;SDS011;42426;46.104;19.656;2023-05-07T14:26:10;14.32;;;12.43;;
56122;SDS011;42426;46.104;19.656;2023-05-07T14:28:35;12.70;;;10.75;;
56122;SDS011;42426;46.104;19.656;2023-05-07T14:31:04;12.73;;;11.32;;
56122;SDS011;42426;46.104;19.656;2023-05-07T14:33:31;11.48;;;10.27;;
56122;SDS011;42426;46.104;19.656;2023-05-07T14:35:57;12.98;;;10.63;;
56122;SDS011;42426;46.104;19.656;2023-05-07T14:38:23;11.68;;;10.30;;
56122;SDS011;42426;46.104;19.656;2023-05-07T14:40:48;11.68;;;10.45;;
56122;SDS011;42426;46.104;19.656;2023-05-07T14:43:14;13.57;;;10.93;;
56122;SDS011;42426;46.104;19.656;2023-05-07T14:45:40;13.88;;;10.90;;
56122;SDS011;42426;46.104;19.656;2023-05-07T14:48:07;11.35;;;10.05;;
56122;SDS011;42426;46.104;19.656;2023-05-07T14:50:34;13.15;;;10.48;;
56122;SDS011;42426;46.104;19.656;2023-05-07T14:52:59;17.23;;;11.20;;
56122;SDS011;42426;46.104;19.656;2023-05-07T14:55:25;15.18;;;10.95;;